Time;durP1;ratioP1;P1;durP2;ratioP2;P2;SDS_P1;SDS_P2;PMS_P1;PMS_P2;Temp;Humidity;BMP_temperature;BMP_pressure;BME280_temperature;BME280_humidity;BME280_pressure;Samples;Min_cycle;Max_cycle;Signal;HPM_P1;HPM_P2
2023/01/18 00:01:14;;;;;;;6.55;3.15;;;1.00;99.90;;;;;;4849008;29;20176;-91
2023/01/18 00:03:41;;;;;;;5.53;2.70;;;1.00;99.90;;;;;;4879035;29;20506;-91
2023/01/18 00:06:08;;;;;;;6.50;2.83;;;1.00;99.90;;;;;;4847308;29;20045;-90
2023/01/18 00:08:35;;;;;;;6.03;3.22;;;1.00;99.90;;;;;;4846748;29;20048;-90
2023/01/18 00:11:09;;;;;;;6.22;2.67;;;0.90;99.90;;;;;;4878412;29;20045;-91
2023/01/18 00:13:35;;;;;;;6.43;2.80;;;0.90;99.90;;;;;;4867142;29;20113;-91
2023/01/18 00:16:04;;;;;;;6.05;2.97;;;0.90;99.90;;;;;;4845591;29;20081;-91
2023/01/18 00:18:30;;;;;;;6.35;2.80;;;1.00;99.90;;;;;;4844583;29;20482;-91
2023/01/18 00:21:00;;;;;;;6.55;3.03;;;1.00;99.90;;;;;;4845185;29;20044;-91
2023/01/18 00:23:26;;;;;;;7.15;3.17;;;1.00;99.90;;;;;;4846058;29;20543;-91
2023/01/18 00:26:05;;;;;;;5.00;2.55;;;0.90;99.90;;;;;;4854334;29;20126;-91
2023/01/18 00:28:31;;;;;;;6.60;3.10;;;0.90;99.90;;;;;;4879769;29;20045;-91
2023/01/18 00:30:57;;;;;;;7.40;3.50;;;1.00;99.90;;;;;;4872165;29;20053;-91
2023/01/18 00:33:22;;;;;;;7.18;3.08;;;0.90;99.90;;;;;;4861769;29;20141;-91
2023/01/18 00:35:56;;;;;;;8.55;3.55;;;0.90;99.90;;;;;;4863054;29;20049;-90
2023/01/18 00:38:21;;;;;;;6.47;2.90;;;0.90;99.90;;;;;;4862849;29;20133;-90
2023/01/18 00:40:47;;;;;;;6.55;3.00;;;0.90;99.90;;;;;;4864076;29;20500;-91
2023/01/18 00:45:56;;;;;;;6.25;3.45;;;0.90;99.90;;;;;;4858183;29;20136;-91
2023/01/18 00:48:22;;;;;;;5.97;2.85;;;0.90;99.90;;;;;;4855580;29;20186;-91
2023/01/18 00:50:47;;;;;;;6.70;2.97;;;0.90;99.90;;;;;;4861194;29;20471;-90
2023/01/18 00:53:13;;;;;;;6.53;3.30;;;1.00;99.90;;;;;;4860670;29;20440;-90
2023/01/18 00:55:39;;;;;;;5.80;3.15;;;1.00;99.90;;;;;;4873075;29;20052;-90
2023/01/18 00:58:04;;;;;;;6.22;2.88;;;0.90;99.90;;;;;;4861239;29;20487;-90
2023/01/18 01:00:31;;;;;;;5.60;2.80;;;0.90;99.90;;;;;;4845802;29;20051;-89
2023/01/18 01:02:57;;;;;;;7.55;3.13;;;0.90;99.90;;;;;;4862155;29;20064;-90
2023/01/18 01:08:15;;;;;;;6.60;3.60;;;0.90;99.90;;;;;;4878959;29;20052;-91
2023/01/18 01:10:48;;;;;;;7.25;3.35;;;0.90;99.90;;;;;;4862419;29;20049;-90
2023/01/18 01:27:12;;;;;;;8.48;3.60;;;0.80;99.90;;;;;;4853598;29;20045;-90
2023/01/18 01:29:38;;;;;;;11.32;3.50;;;0.70;99.90;;;;;;4868569;29;20045;-89
2023/01/18 01:32:04;;;;;;;7.80;3.90;;;0.70;99.90;;;;;;4863218;29;20140;-90
2023/01/18 01:34:30;;;;;;;5.30;3.08;;;0.70;99.90;;;;;;4876692;29;20045;-90
2023/01/18 01:36:56;;;;;;;8.80;3.60;;;0.70;99.90;;;;;;4865548;29;20130;-90
2023/01/18 01:39:22;;;;;;;7.68;3.10;;;0.70;99.90;;;;;;4877031;29;20050;-89
2023/01/18 01:41:48;;;;;;;9.27;4.03;;;0.70;99.90;;;;;;4851956;29;20049;-90
2023/01/18 01:44:18;;;;;;;7.03;3.47;;;0.70;99.90;;;;;;4863418;29;20486;-90
2023/01/18 01:46:46;;;;;;;9.85;4.20;;;0.70;99.90;;;;;;4864946;29;20044;-90
2023/01/18 01:49:22;;;;;;;7.10;3.78;;;0.60;99.90;;;;;;4866212;29;20561;-90
2023/01/18 01:52:01;;;;;;;6.88;3.60;;;0.70;99.90;;;;;;4847661;29;20085;-90
2023/01/18 01:54:35;;;;;;;7.15;3.85;;;0.60;99.90;;;;;;4853920;29;20050;-89
2023/01/18 01:57:09;;;;;;;9.27;3.85;;;0.60;99.90;;;;;;4847008;29;20062;-89
2023/01/18 01:59:43;;;;;;;7.28;3.75;;;0.60;99.90;;;;;;4852186;29;20041;-88
2023/01/18 02:02:10;;;;;;;7.70;3.92;;;0.60;99.90;;;;;;4864989;29;20562;-90
2023/01/18 02:04:37;;;;;;;8.07;4.22;;;0.60;99.90;;;;;;4865019;29;20068;-90
2023/01/18 02:07:05;;;;;;;6.53;3.60;;;0.60;99.90;;;;;;4864982;29;20080;-90
2023/01/18 02:09:31;;;;;;;6.38;3.50;;;0.60;99.90;;;;;;4861324;29;20068;-90
2023/01/18 02:11:56;;;;;;;8.02;3.90;;;0.50;99.90;;;;;;4850561;29;20503;-90
2023/01/18 02:14:26;;;;;;;7.72;4.30;;;0.50;99.90;;;;;;4867329;29;20061;-90
2023/01/18 02:17:10;;;;;;;7.32;3.95;;;0.50;99.90;;;;;;4881416;29;20052;-90
2023/01/18 02:20:05;;;;;;;8.00;4.30;;;0.50;99.90;;;;;;4854502;29;20096;-90
2023/01/18 02:22:52;;;;;;;7.00;3.55;;;0.50;99.90;;;;;;4858873;29;20057;-90
2023/01/18 02:25:30;;;;;;;8.18;4.28;;;0.50;99.90;;;;;;4854880;29;20416;-90
2023/01/18 02:28:20;;;;;;;9.65;4.35;;;0.50;99.90;;;;;;4865122;29;20045;-90
2023/01/18 02:31:07;;;;;;;9.70;4.10;;;0.50;99.90;;;;;;4851051;29;20505;-90
2023/01/18 02:33:41;;;;;;;10.18;5.32;;;0.40;99.90;;;;;;4862803;29;20063;-90
2023/01/18 02:36:07;;;;;;;8.85;4.40;;;0.40;99.90;;;;;;4856942;29;20036;-90
2023/01/18 02:38:46;;;;;;;6.38;3.85;;;0.40;99.90;;;;;;4864722;29;20455;-89
2023/01/18 02:47:27;;;;;;;8.48;4.45;;;0.40;99.90;;;;;;4820801;29;20534;-90
2023/01/18 02:49:55;;;;;;;7.97;4.70;;;0.30;99.90;;;;;;4848589;29;20079;-90
2023/01/18 02:52:40;;;;;;;7.70;3.88;;;0.30;99.90;;;;;;4860141;29;20053;-90
2023/01/18 02:55:14;;;;;;;7.20;4.35;;;0.30;99.90;;;;;;4865906;29;20049;-90
2023/01/18 02:57:40;;;;;;;7.25;3.80;;;0.30;99.90;;;;;;4854028;29;20083;-90
2023/01/18 03:00:09;;;;;;;8.50;4.70;;;0.30;99.90;;;;;;4864285;29;20085;-89
2023/01/18 03:02:37;;;;;;;7.60;4.60;;;0.30;99.90;;;;;;4871429;29;20045;-90
2023/01/18 03:05:03;;;;;;;8.30;4.22;;;0.30;99.90;;;;;;4875892;29;20512;-90
2023/01/18 03:07:39;;;;;;;8.23;4.22;;;0.30;99.90;;;;;;4877177;29;20131;-90
2023/01/18 03:10:08;;;;;;;8.20;4.68;;;0.30;99.90;;;;;;4857735;29;20395;-90
2023/01/18 03:12:46;;;;;;;7.53;4.57;;;0.30;99.90;;;;;;4855420;29;20049;-89
2023/01/18 03:15:33;;;;;;;7.25;4.28;;;0.30;99.90;;;;;;4873359;29;20452;-90
2023/01/18 03:18:06;;;;;;;7.57;4.55;;;0.40;99.90;;;;;;4856562;29;20064;-90
2023/01/18 03:20:36;;;;;;;8.40;5.00;;;0.30;99.90;;;;;;4863477;29;20088;-90
2023/01/18 03:23:37;;;;;;;7.97;4.90;;;0.30;99.90;;;;;;4880705;29;20049;-91
2023/01/18 03:26:15;;;;;;;9.35;4.80;;;0.30;99.90;;;;;;4865199;29;20554;-90
2023/01/18 03:34:21;;;;;;;8.90;4.85;;;0.30;99.90;;;;;;4879969;29;20074;-90
2023/01/18 03:36:52;;;;;;;7.60;4.00;;;0.40;99.90;;;;;;4876840;29;20044;-90
2023/01/18 03:39:41;;;;;;;8.02;4.43;;;0.30;99.90;;;;;;4849912;29;20484;-90
2023/01/18 03:42:31;;;;;;;16.02;5.20;;;0.30;99.90;;;;;;4866762;29;20053;-90
2023/01/18 03:45:09;;;;;;;7.78;4.65;;;0.30;99.90;;;;;;4857702;29;20079;-91
2023/01/18 03:47:35;;;;;;;8.40;4.75;;;0.30;99.90;;;;;;4863648;29;20498;-90
2023/01/18 03:50:01;;;;;;;7.65;4.65;;;0.30;99.90;;;;;;4862964;29;20088;-90
2023/01/18 03:52:42;;;;;;;8.52;4.97;;;0.30;99.90;;;;;;4862904;29;20498;-91
2023/01/18 03:55:19;;;;;;;7.47;4.68;;;0.30;99.90;;;;;;4850686;29;20049;-90
2023/01/18 03:58:08;;;;;;;8.57;5.00;;;0.30;99.90;;;;;;4862497;29;20057;-90
2023/01/18 04:00:35;;;;;;;8.02;5.15;;;0.20;99.90;;;;;;4874987;29;20091;-90
2023/01/18 04:03:00;;;;;;;8.98;5.22;;;0.20;99.90;;;;;;4861464;29;20076;-90
2023/01/18 04:05:26;;;;;;;12.57;5.50;;;0.20;99.90;;;;;;4860536;29;20080;-90
2023/01/18 04:07:52;;;;;;;8.02;4.78;;;0.20;99.90;;;;;;4855390;29;20034;-91
2023/01/18 04:10:18;;;;;;;8.10;4.88;;;0.20;99.90;;;;;;4861962;29;20435;-90
2023/01/18 04:12:44;;;;;;;10.02;4.95;;;0.20;99.90;;;;;;4862317;29;20042;-91
2023/01/18 04:15:10;;;;;;;10.52;5.45;;;0.10;99.90;;;;;;4844682;29;20053;-90
2023/01/18 04:17:36;;;;;;;10.60;5.85;;;0.10;99.90;;;;;;4851405;29;20399;-90
2023/01/18 04:20:02;;;;;;;8.18;4.88;;;0.10;99.90;;;;;;4863134;29;20127;-91
2023/01/18 04:22:28;;;;;;;9.38;5.32;;;0.10;99.90;;;;;;4855878;29;20041;-91
2023/01/18 04:24:53;;;;;;;8.48;4.93;;;0.10;99.90;;;;;;4855401;29;20048;-90
2023/01/18 04:27:23;;;;;;;8.85;5.28;;;0.10;99.90;;;;;;4854867;29;20060;-91
2023/01/18 04:29:49;;;;;;;9.95;5.97;;;0.00;99.90;;;;;;4851638;29;20055;-90
2023/01/18 04:32:15;;;;;;;9.13;5.20;;;0.00;99.90;;;;;;4861565;29;20045;-90
2023/01/18 04:34:40;;;;;;;11.15;5.60;;;0.00;99.90;;;;;;4862738;29;20041;-90
2023/01/18 04:37:06;;;;;;;9.23;5.57;;;0.00;99.90;;;;;;4845950;29;20044;-90
2023/01/18 04:39:32;;;;;;;8.48;5.38;;;0.00;99.90;;;;;;4850569;29;20043;-90
2023/01/18 04:41:57;;;;;;;10.25;5.43;;;0.00;99.90;;;;;;4870476;29;20076;-89
2023/01/18 04:44:23;;;;;;;12.57;5.80;;;0.00;99.90;;;;;;4845190;29;20045;-90
2023/01/18 04:46:49;;;;;;;9.30;5.15;;;-0.10;99.90;;;;;;4858007;29;20052;-90
2023/01/18 04:49:18;;;;;;;10.27;5.63;;;-0.10;99.90;;;;;;4862011;29;20041;-90
2023/01/18 04:51:45;;;;;;;12.07;5.95;;;-0.10;99.90;;;;;;4879785;29;20049;-90
2023/01/18 04:54:14;;;;;;;10.25;5.50;;;-0.10;99.90;;;;;;4860321;29;20041;-90
2023/01/18 04:56:40;;;;;;;10.23;5.97;;;-0.10;99.90;;;;;;4879047;29;20049;-90
2023/01/18 04:59:06;;;;;;;11.15;5.28;;;-0.10;99.90;;;;;;4848501;29;20046;-91
2023/01/18 05:01:32;;;;;;;9.95;5.90;;;-0.10;99.90;;;;;;4864990;29;20067;-91
2023/01/18 05:03:58;;;;;;;10.23;5.95;;;-0.10;99.90;;;;;;4861366;29;20511;-90
2023/01/18 05:06:24;;;;;;;10.30;5.80;;;-0.10;99.90;;;;;;4878751;29;20045;-91
2023/01/18 05:08:50;;;;;;;9.57;5.45;;;-0.10;99.90;;;;;;4866143;29;20049;-90
2023/01/18 05:11:19;;;;;;;10.48;6.07;;;-0.10;99.90;;;;;;4882689;29;20101;-91
2023/01/18 05:13:45;;;;;;;9.50;5.97;;;-0.10;99.90;;;;;;4881169;29;20089;-92
2023/01/18 05:16:16;;;;;;;10.60;6.15;;;-0.10;99.90;;;;;;4865793;29;20108;-90
2023/01/18 05:18:42;;;;;;;9.38;5.82;;;-0.10;99.90;;;;;;4880973;29;20037;-91
2023/01/18 05:21:08;;;;;;;8.90;5.35;;;-0.10;99.90;;;;;;4858582;29;20041;-92
2023/01/18 05:23:34;;;;;;;12.02;5.28;;;-0.10;99.90;;;;;;4870194;29;20375;-93
2023/01/18 05:26:00;;;;;;;9.38;5.50;;;-0.20;99.90;;;;;;4866428;29;20048;-91
2023/01/18 05:28:27;;;;;;;12.02;5.85;;;-0.20;99.90;;;;;;4865438;29;20104;-92
2023/01/18 05:34:15;;;;;;;11.30;6.07;;;-0.10;99.90;;;;;;4878388;29;20069;-96
2023/01/18 05:37:17;;;;;;;9.13;5.65;;;-0.20;99.90;;;;;;4827288;29;20141;-96
2023/01/18 05:39:43;;;;;;;8.75;5.60;;;-0.20;99.90;;;;;;4813585;29;20051;-92
2023/01/18 05:42:15;;;;;;;12.68;6.07;;;-0.20;99.90;;;;;;4810100;29;20058;-93
2023/01/18 05:44:40;;;;;;;10.15;5.93;;;-0.20;99.90;;;;;;4829796;29;20049;-93
2023/01/18 05:47:06;;;;;;;11.32;5.72;;;-0.20;99.90;;;;;;4857737;29;20041;-92
2023/01/18 05:49:38;;;;;;;9.52;5.82;;;-0.20;99.90;;;;;;4858985;29;20053;-91
2023/01/18 05:52:03;;;;;;;11.25;6.15;;;-0.20;99.90;;;;;;4847054;29;20053;-92
2023/01/18 05:54:43;;;;;;;10.82;6.35;;;-0.20;99.90;;;;;;4857035;29;20057;-92
2023/01/18 05:57:12;;;;;;;11.27;5.93;;;-0.20;99.90;;;;;;4829746;29;20045;-93
2023/01/18 05:59:46;;;;;;;10.13;5.80;;;-0.20;99.90;;;;;;4854299;29;20106;-92
2023/01/18 06:02:12;;;;;;;12.75;5.75;;;-0.20;99.90;;;;;;4835533;29;20052;-91
2023/01/18 06:04:38;;;;;;;11.05;6.00;;;-0.20;99.90;;;;;;4856510;29;20125;-92
2023/01/18 06:07:03;;;;;;;9.90;5.95;;;-0.20;99.90;;;;;;4861967;29;20077;-92
2023/01/18 06:09:29;;;;;;;9.63;5.25;;;-0.20;99.90;;;;;;4851311;29;20253;-91
2023/01/18 06:11:58;;;;;;;11.45;6.72;;;-0.20;99.90;;;;;;4836496;29;20069;-92
2023/01/18 06:14:26;;;;;;;10.20;5.97;;;-0.20;99.90;;;;;;4851899;29;20102;-91
2023/01/18 06:16:57;;;;;;;10.13;6.03;;;-0.10;99.90;;;;;;4860531;29;20044;-90
2023/01/18 06:19:23;;;;;;;11.75;6.55;;;-0.20;99.90;;;;;;4848365;29;20049;-92
2023/01/18 06:21:49;;;;;;;10.38;6.20;;;-0.30;99.90;;;;;;4828638;29;20046;-92
2023/01/18 06:24:37;;;;;;;10.98;6.18;;;-0.20;99.90;;;;;;4847141;29;20038;-92
2023/01/18 06:27:11;;;;;;;10.80;6.30;;;-0.30;99.90;;;;;;4844668;29;20503;-92
2023/01/18 06:29:36;;;;;;;12.80;5.85;;;-0.30;99.90;;;;;;4836788;29;20038;-91
2023/01/18 06:32:02;;;;;;;10.95;6.32;;;-0.30;99.90;;;;;;4858898;29;20062;-92
2023/01/18 06:34:28;;;;;;;10.60;6.32;;;-0.30;99.90;;;;;;4849902;29;20113;-92
2023/01/18 06:36:54;;;;;;;11.00;5.85;;;-0.30;99.90;;;;;;4863382;29;20089;-92
2023/01/18 06:39:27;;;;;;;11.60;6.70;;;-0.30;99.90;;;;;;4857154;29;20041;-92
2023/01/18 06:41:56;;;;;;;10.70;6.78;;;-0.30;99.90;;;;;;4857583;29;20053;-92
2023/01/18 06:44:24;;;;;;;10.77;5.78;;;-0.20;99.90;;;;;;4860880;29;20041;-91
2023/01/18 06:46:54;;;;;;;10.60;5.63;;;-0.30;99.90;;;;;;4844139;29;20046;-92
2023/01/18 06:49:34;;;;;;;11.43;6.07;;;-0.30;99.90;;;;;;4860394;29;20120;-91
2023/01/18 06:52:08;;;;;;;9.95;5.43;;;-0.30;99.90;;;;;;4857530;29;20057;-91
2023/01/18 06:54:43;;;;;;;11.50;5.63;;;-0.30;99.90;;;;;;4848936;29;20483;-92
2023/01/18 06:57:18;;;;;;;10.55;5.82;;;-0.30;99.90;;;;;;4861617;29;20109;-92
2023/01/18 07:00:08;;;;;;;14.13;6.28;;;-0.30;99.90;;;;;;4859592;29;20041;-91
2023/01/18 07:02:37;;;;;;;12.25;5.78;;;-0.30;99.90;;;;;;4860988;29;20058;-92
2023/01/18 07:05:03;;;;;;;14.65;6.28;;;-0.30;99.90;;;;;;4861474;29;20056;-92
2023/01/18 07:07:29;;;;;;;10.02;5.90;;;-0.40;99.90;;;;;;4859976;29;20544;-92
2023/01/18 07:09:55;;;;;;;11.77;6.13;;;-0.30;99.90;;;;;;4845778;29;20045;-92
2023/01/18 07:12:20;;;;;;;11.35;6.65;;;-0.20;99.90;;;;;;4843711;29;20045;-91
2023/01/18 07:14:52;;;;;;;11.55;5.95;;;-0.30;99.90;;;;;;4860807;29;20046;-92
2023/01/18 07:17:18;;;;;;;10.55;5.97;;;-0.30;99.90;;;;;;4846740;29;20054;-92
2023/01/18 07:19:50;;;;;;;9.73;6.00;;;-0.30;99.90;;;;;;4848819;29;20094;-91
2023/01/18 07:22:18;;;;;;;12.95;6.50;;;-0.30;99.90;;;;;;4860977;29;20140;-92
2023/01/18 07:24:45;;;;;;;8.63;5.97;;;-0.30;99.90;;;;;;4850809;29;20399;-92
2023/01/18 07:27:12;;;;;;;10.65;6.68;;;-0.30;99.90;;;;;;4841864;29;20441;-90
2023/01/18 07:29:39;;;;;;;10.75;6.28;;;-0.30;99.90;;;;;;4856361;29;20137;-91
2023/01/18 07:32:05;;;;;;;9.85;5.80;;;-0.30;99.90;;;;;;4859359;29;20066;-91
2023/01/18 07:34:30;;;;;;;11.35;6.30;;;-0.30;99.90;;;;;;4847358;29;20046;-92
2023/01/18 07:36:56;;;;;;;11.15;6.20;;;-0.30;99.90;;;;;;4854624;29;20502;-92
2023/01/18 07:39:21;;;;;;;10.55;5.80;;;-0.30;99.90;;;;;;4850691;29;20484;-91
2023/01/18 07:41:47;;;;;;;10.95;5.93;;;-0.20;99.90;;;;;;4860789;29;20097;-92
2023/01/18 07:44:14;;;;;;;11.40;5.30;;;-0.20;99.90;;;;;;4854568;29;20052;-90
2023/01/18 07:46:41;;;;;;;14.07;6.00;;;-0.30;99.90;;;;;;4856388;29;20053;-92
2023/01/18 07:49:07;;;;;;;10.05;5.75;;;-0.20;99.90;;;;;;4852662;29;20071;-90
2023/01/18 07:51:33;;;;;;;12.27;5.95;;;-0.20;99.90;;;;;;4848410;29;20061;-92
2023/01/18 07:53:59;;;;;;;11.68;6.05;;;-0.20;99.90;;;;;;4842546;29;20133;-92
2023/01/18 07:56:26;;;;;;;9.88;6.20;;;-0.20;99.90;;;;;;4843464;29;20078;-92
2023/01/18 07:58:52;;;;;;;11.48;6.25;;;-0.20;99.90;;;;;;4842761;29;20056;-91
2023/01/18 08:01:20;;;;;;;14.80;5.65;;;-0.20;99.90;;;;;;4862132;29;20046;-92
2023/01/18 08:03:47;;;;;;;10.68;5.53;;;-0.10;99.90;;;;;;4843670;29;20098;-92
2023/01/18 08:06:17;;;;;;;10.38;5.80;;;-0.20;99.90;;;;;;4860381;29;20056;-94
2023/01/18 08:08:43;;;;;;;14.07;5.78;;;-0.20;99.90;;;;;;4860258;29;20044;-92
2023/01/18 08:11:09;;;;;;;11.18;5.40;;;-0.10;99.90;;;;;;4861141;29;20046;-93
2023/01/18 08:13:35;;;;;;;11.40;5.15;;;-0.10;99.90;;;;;;4859050;29;20049;-92
2023/01/18 08:16:03;;;;;;;10.48;6.10;;;-0.10;99.90;;;;;;4857619;29;20048;-93
2023/01/18 08:18:29;;;;;;;10.02;5.80;;;-0.10;99.90;;;;;;4859177;29;20510;-92
2023/01/18 08:20:55;;;;;;;10.57;5.68;;;-0.10;99.90;;;;;;4859994;29;20038;-93
2023/01/18 08:23:23;;;;;;;9.63;6.13;;;-0.10;99.90;;;;;;4852763;29;20049;-90
2023/01/18 08:25:48;;;;;;;9.25;5.22;;;0.00;99.90;;;;;;4844936;29;20046;-91
2023/01/18 08:28:14;;;;;;;10.73;5.55;;;0.00;99.90;;;;;;4845952;29;20048;-91
2023/01/18 08:30:42;;;;;;;11.27;5.68;;;-0.10;99.90;;;;;;4844089;29;20046;-94
2023/01/18 08:33:08;;;;;;;12.13;5.63;;;0.00;99.90;;;;;;4843692;29;20049;-93
2023/01/18 08:35:43;;;;;;;9.82;5.35;;;0.00;99.90;;;;;;4861747;29;20056;-95
2023/01/18 08:38:10;;;;;;;9.32;5.20;;;0.00;99.90;;;;;;4861824;29;20121;-94
2023/01/18 08:40:36;;;;;;;12.20;5.38;;;0.00;99.90;;;;;;4844628;29;20045;-92
2023/01/18 08:43:03;;;;;;;9.27;5.20;;;0.00;99.90;;;;;;4861866;29;20053;-92
2023/01/18 08:45:29;;;;;;;11.48;5.65;;;0.10;99.90;;;;;;4861408;29;20555;-93
2023/01/18 08:48:06;;;;;;;10.68;4.95;;;0.10;99.90;;;;;;4845368;29;20077;-93
2023/01/18 08:50:33;;;;;;;13.43;5.47;;;0.10;99.90;;;;;;4845602;29;20475;-94
2023/01/18 08:52:59;;;;;;;9.80;5.80;;;0.10;99.90;;;;;;4861480;29;20041;-93
2023/01/18 08:55:26;;;;;;;11.57;5.05;;;0.10;99.90;;;;;;4861655;29;20052;-92
2023/01/18 08:57:56;;;;;;;12.30;5.90;;;0.20;99.90;;;;;;4849463;29;20076;-94
2023/01/18 09:00:23;;;;;;;8.85;5.00;;;0.20;99.90;;;;;;4842474;29;20042;-89
2023/01/18 09:02:49;;;;;;;9.65;5.15;;;0.20;99.90;;;;;;4830701;29;20073;-92
2023/01/18 09:05:15;;;;;;;11.00;5.70;;;0.30;99.90;;;;;;4860072;29;20487;-93
2023/01/18 09:07:43;;;;;;;10.90;5.40;;;0.30;99.90;;;;;;4844697;29;20048;-92
2023/01/18 09:10:15;;;;;;;12.55;5.32;;;0.30;99.90;;;;;;4861021;29;20054;-92
2023/01/18 09:12:41;;;;;;;9.35;4.95;;;0.30;99.90;;;;;;4844095;29;20073;-93
2023/01/18 09:15:07;;;;;;;13.35;6.00;;;0.40;99.90;;;;;;4844638;29;20053;-93
2023/01/18 09:17:33;;;;;;;11.15;5.82;;;0.40;99.90;;;;;;4859785;29;20089;-93
2023/01/18 09:19:58;;;;;;;11.65;5.55;;;0.40;99.90;;;;;;4844569;29;20521;-93
2023/01/18 09:22:24;;;;;;;11.77;5.85;;;0.40;99.90;;;;;;4844781;29;20057;-92
2023/01/18 09:24:50;;;;;;;9.48;5.35;;;0.40;99.90;;;;;;4843428;29;20177;-92
2023/01/18 09:27:16;;;;;;;11.30;5.70;;;0.50;99.90;;;;;;4860743;29;20049;-93
2023/01/18 09:29:42;;;;;;;13.05;5.90;;;0.50;99.90;;;;;;4844573;29;20061;-92
2023/01/18 09:32:08;;;;;;;11.77;5.65;;;0.50;99.90;;;;;;4859895;29;20076;-92
2023/01/18 09:34:34;;;;;;;10.40;6.05;;;0.50;99.90;;;;;;4844375;29;20129;-93
2023/01/18 09:37:00;;;;;;;11.80;5.75;;;0.60;99.90;;;;;;4843499;29;20053;-93
2023/01/18 09:39:29;;;;;;;12.38;5.85;;;0.60;99.90;;;;;;4860980;29;20060;-93
2023/01/18 09:42:00;;;;;;;10.13;5.43;;;0.60;99.90;;;;;;4844937;29;20562;-92
2023/01/18 09:44:35;;;;;;;11.90;5.68;;;0.70;99.90;;;;;;4860469;29;20049;-92
2023/01/18 09:47:20;;;;;;;9.65;5.57;;;0.70;99.90;;;;;;4860597;29;20061;-93
2023/01/18 09:49:56;;;;;;;10.18;5.78;;;0.70;99.90;;;;;;4844664;29;20072;-93
2023/01/18 09:52:41;;;;;;;11.52;5.93;;;0.70;99.90;;;;;;4843765;29;20045;-92
2023/01/18 09:55:21;;;;;;;11.68;5.90;;;0.80;99.90;;;;;;4846948;29;20399;-93
2023/01/18 09:58:05;;;;;;;10.57;5.90;;;0.80;99.90;;;;;;4847568;29;20053;-93
2023/01/18 10:00:35;;;;;;;11.88;5.68;;;0.80;99.90;;;;;;4831949;29;20050;-92
2023/01/18 10:03:53;;;;;;;13.23;5.97;;;0.90;99.90;;;;;;4863301;29;20124;-92
2023/01/18 10:06:24;;;;;;;11.93;6.00;;;0.90;99.90;;;;;;4819034;29;20070;-94
2023/01/18 10:08:52;;;;;;;10.63;5.80;;;1.00;99.90;;;;;;4828690;29;20098;-93
2023/01/18 10:11:54;;;;;;;9.93;5.38;;;1.00;99.90;;;;;;4828970;29;20414;-92
2023/01/18 10:14:27;;;;;;;9.63;5.28;;;1.00;99.90;;;;;;4845385;29;20050;-92
2023/01/18 10:16:56;;;;;;;11.00;5.43;;;1.10;99.90;;;;;;4840278;29;20069;-92
2023/01/18 10:19:29;;;;;;;11.27;5.57;;;1.10;99.90;;;;;;4849221;29;20049;-92
2023/01/18 10:22:06;;;;;;;10.43;5.43;;;1.20;99.90;;;;;;4841185;29;20042;-93
2023/01/18 10:24:47;;;;;;;11.98;5.30;;;1.20;99.90;;;;;;4828672;29;20142;-92
2023/01/18 10:27:37;;;;;;;12.50;5.80;;;1.30;99.90;;;;;;4839974;29;20041;-92
2023/01/18 10:30:33;;;;;;;10.43;5.50;;;1.30;99.90;;;;;;4859702;29;20534;-93
2023/01/18 10:33:05;;;;;;;12.02;5.10;;;1.40;99.90;;;;;;4836817;29;20054;-92
2023/01/18 10:35:38;;;;;;;9.82;5.05;;;1.40;99.90;;;;;;4850506;29;20082;-93
2023/01/18 10:38:08;;;;;;;11.15;5.80;;;1.50;99.90;;;;;;4857026;29;20101;-93
2023/01/18 10:40:37;;;;;;;13.27;5.60;;;1.50;99.90;;;;;;4860267;29;20056;-93
2023/01/18 10:43:13;;;;;;;8.60;5.07;;;1.60;99.90;;;;;;4857251;29;20056;-95
2023/01/18 10:45:39;;;;;;;11.20;5.20;;;1.70;99.90;;;;;;4857260;29;20052;-92
2023/01/18 10:48:32;;;;;;;11.43;5.53;;;1.70;99.90;;;;;;4858253;29;20042;-93
2023/01/18 10:51:04;;;;;;;10.70;4.90;;;1.70;99.90;;;;;;4860762;29;20140;-93
2023/01/18 10:53:33;;;;;;;10.18;5.43;;;1.80;99.90;;;;;;4862792;29;20048;-95
2023/01/18 10:56:05;;;;;;;9.85;5.10;;;1.80;99.90;;;;;;4862455;29;20563;-94
2023/01/18 10:58:39;;;;;;;9.10;5.70;;;1.90;99.90;;;;;;4858902;29;20136;-94
2023/01/18 11:01:05;;;;;;;8.90;4.95;;;1.90;99.90;;;;;;4854618;29;20559;-94
2023/01/18 11:03:42;;;;;;;9.30;5.10;;;2.00;99.90;;;;;;4849569;29;20046;-95
2023/01/18 11:06:10;;;;;;;12.93;5.13;;;2.00;99.90;;;;;;4861641;29;20041;-95
2023/01/18 11:08:36;;;;;;;11.63;5.35;;;2.10;99.90;;;;;;4862931;29;20061;-94
2023/01/18 11:12:32;;;;;;;14.82;7.30;;;2.10;99.90;;;;;;4863004;29;20056;-94
2023/01/18 11:14:29;;;;;;;13.73;7.60;;;2.20;99.90;;;;;;4862658;29;20459;-94
2023/01/18 11:17:00;;;;;;;19.80;9.90;;;2.30;99.90;;;;;;4863920;29;20064;-96
2023/01/18 11:19:25;;;;;;;18.02;8.68;;;2.30;99.90;;;;;;4850580;29;20125;-94
2023/01/18 11:21:52;;;;;;;15.07;8.05;;;2.40;99.90;;;;;;4844340;29;20092;-95
2023/01/18 11:24:23;;;;;;;10.70;5.25;;;2.40;99.90;;;;;;4844424;29;20049;-94
2023/01/18 11:26:58;;;;;;;10.10;4.85;;;2.50;99.90;;;;;;4845159;29;20058;-94
2023/01/18 11:29:31;;;;;;;10.95;4.90;;;2.50;99.90;;;;;;4844957;29;20101;-96
2023/01/18 11:32:05;;;;;;;8.98;4.53;;;2.60;99.90;;;;;;4847127;29;20093;-94
2023/01/18 11:34:41;;;;;;;13.32;5.30;;;2.60;99.90;;;;;;4860097;29;20042;-96
2023/01/18 11:37:37;;;;;;;14.93;4.78;;;2.70;99.90;;;;;;4841710;29;20049;-92
2023/01/18 11:40:17;;;;;;;9.30;4.65;;;2.70;99.90;;;;;;4845033;29;20049;-94
2023/01/18 11:42:44;;;;;;;9.85;4.70;;;2.70;99.90;;;;;;4861311;29;20046;-96
2023/01/18 11:45:23;;;;;;;13.50;5.03;;;2.80;99.90;;;;;;4846599;29;20050;-96
2023/01/18 11:48:04;;;;;;;7.97;4.38;;;2.90;99.90;;;;;;4836864;29;20053;-96
2023/01/18 11:50:36;;;;;;;11.07;4.55;;;2.90;99.90;;;;;;4828229;29;20053;-93
2023/01/18 11:53:14;;;;;;;8.15;4.75;;;3.00;99.90;;;;;;4827550;29;20058;-95
2023/01/18 11:56:17;;;;;;;6.88;4.25;;;3.00;99.90;;;;;;4827760;29;20050;-96
2023/01/18 11:58:44;;;;;;;10.00;4.45;;;3.10;99.90;;;;;;4849216;29;20120;-91
2023/01/18 12:01:20;;;;;;;9.40;4.40;;;3.10;99.90;;;;;;4859442;29;20045;-93
2023/01/18 12:03:46;;;;;;;8.90;4.32;;;3.10;99.90;;;;;;4837119;29;20380;-94
2023/01/18 12:09:27;;;;;;;10.40;4.65;;;3.20;99.90;;;;;;4883383;23;20056;-95
2023/01/18 12:12:41;;;;;;;11.40;4.60;;;3.30;99.90;;;;;;4860557;29;20061;-96
2023/01/18 12:16:24;;;;;;;;;;;;;;;;;;;;;
2023/01/18 12:19:31;;;;;;;11.27;4.50;;;3.30;99.90;;;;;;4774836;29;20058;-96
2023/01/18 12:22:38;;;;;;;7.28;3.90;;;3.30;99.90;;;;;;4791456;29;20078;-96
2023/01/18 12:25:34;;;;;;;10.52;4.63;;;3.40;99.90;;;;;;4822583;29;20054;-91
2023/01/18 12:28:30;;;;;;;11.32;4.82;;;3.50;99.90;;;;;;4825770;29;20143;-91
2023/01/18 12:31:27;;;;;;;9.45;4.60;;;3.50;99.90;;;;;;4861300;29;20045;-90
2023/01/18 12:34:31;;;;;;;8.63;4.40;;;3.50;99.90;;;;;;4875034;29;20045;-91
2023/01/18 12:37:16;;;;;;;9.77;4.60;;;3.60;99.90;;;;;;4871651;29;20052;-90
2023/01/18 12:40:03;;;;;;;7.65;4.10;;;3.60;99.90;;;;;;4878341;29;20451;-89
2023/01/18 12:42:41;;;;;;;10.15;4.22;;;3.60;99.90;;;;;;4890198;29;20472;-90
2023/01/18 12:45:18;;;;;;;10.13;4.70;;;3.60;99.90;;;;;;4861177;29;20056;-89
2023/01/18 12:48:20;;;;;;;9.63;4.22;;;3.70;99.90;;;;;;4885888;29;20045;-89
2023/01/18 12:51:08;;;;;;;9.20;4.25;;;3.60;99.90;;;;;;4860655;29;20056;-89
2023/01/18 12:54:00;;;;;;;8.48;4.18;;;3.70;99.90;;;;;;4866001;29;20105;-89
2023/01/18 12:56:38;;;;;;;11.32;4.35;;;3.70;99.90;;;;;;4860355;29;20045;-90
2023/01/18 12:59:29;;;;;;;11.57;4.20;;;3.70;99.90;;;;;;4878853;29;20104;-90
2023/01/18 13:02:20;;;;;;;8.10;4.25;;;3.80;99.90;;;;;;4854010;29;20037;-89
2023/01/18 13:04:57;;;;;;;9.43;4.32;;;3.80;99.90;;;;;;4862167;29;20577;-89
2023/01/18 13:07:48;;;;;;;8.77;4.28;;;3.80;99.90;;;;;;4853198;29;20140;-90
2023/01/18 13:10:27;;;;;;;;;;;3.80;99.90;;;;;;4859251;29;20045;-88
2023/01/18 13:12:57;;;;;;;12.18;4.45;;;3.80;99.90;;;;;;4860061;29;19947;-90
2023/01/18 13:15:41;;;;;;;12.48;3.90;;;3.90;99.90;;;;;;4856403;29;20085;-90
2023/01/18 13:18:20;;;;;;;8.13;4.00;;;3.90;99.90;;;;;;4842218;29;20050;-90
2023/01/18 13:21:15;;;;;;;9.65;4.00;;;3.90;99.90;;;;;;4858318;29;20052;-88
2023/01/18 13:24:09;;;;;;;7.70;4.07;;;4.00;99.80;;;;;;4861464;29;20525;-90
2023/01/18 13:26:39;;;;;;;12.02;3.85;;;4.00;99.80;;;;;;4857839;29;20053;-90
2023/01/18 13:29:28;;;;;;;10.85;3.80;;;4.00;99.90;;;;;;4863839;29;20530;-89
2023/01/18 13:31:55;;;;;;;7.38;3.75;;;4.00;99.70;;;;;;4858555;29;20050;-88
2023/01/18 13:34:30;;;;;;;10.93;4.35;;;4.00;99.80;;;;;;4845894;29;20046;-89
2023/01/18 13:37:01;;;;;;;8.63;3.95;;;4.00;99.80;;;;;;4843669;29;20503;-89
2023/01/18 13:39:32;;;;;;;10.13;3.60;;;3.90;99.80;;;;;;4859485;29;20050;-89
2023/01/18 13:42:04;;;;;;;10.60;3.85;;;4.00;99.80;;;;;;4860851;29;20049;-89
2023/01/18 13:44:43;;;;;;;9.68;3.63;;;3.90;99.70;;;;;;4846631;29;20049;-89
2023/01/18 13:47:54;;;;;;;10.07;3.83;;;3.90;99.70;;;;;;4858342;29;20056;-88
2023/01/18 13:50:44;;;;;;;8.15;4.05;;;3.90;99.60;;;;;;4859083;29;20081;-90
2023/01/18 13:53:38;;;;;;;10.80;3.58;;;3.90;99.70;;;;;;4846008;29;20141;-88
2023/01/18 13:56:20;;;;;;;9.30;3.72;;;3.90;99.80;;;;;;4834742;29;20566;-88
2023/01/18 13:59:10;;;;;;;7.90;3.60;;;3.90;99.70;;;;;;4838849;29;20050;-90